Terminal Aerodrome Forecast
Issued by NWS

Home | Current Version | Previous Version | Text Only | Print | Product List | Glossary On
Versions: 1 2 3 4 5 6 7 8 9 10 11 12 13 14 15 16 17 18 19 20 21 22
000
FTUS43 KILX 270500 RRA
TAFDEC
TAF
KDEC 270542Z 2706/2806 01009KT P6SM SCT025 OVC050
     FM270800 35009KT P6SM OVC018
     FM271100 30010KT P6SM OVC012
     FM271900 31012KT P6SM SCT025 BKN100=

USA.gov is the U.S. government's official web portal to all federal, state and local government web resources and services.